sensor_id;sensor_type;location;lat;lon;timestamp;P1;durP1;ratioP1;P2;durP2;ratioP2
29358;SDS011;16347;53.232;6.556;2023-04-03T00:01:09;5.57;;;1.98;;
29358;SDS011;16347;53.232;6.556;2023-04-03T00:03:39;3.28;;;2.00;;
29358;SDS011;16347;53.232;6.556;2023-04-03T00:06:08;3.28;;;1.85;;
29358;SDS011;16347;53.232;6.556;2023-04-03T00:08:38;4.07;;;1.77;;
29358;SDS011;16347;53.232;6.556;2023-04-03T00:11:07;5.68;;;1.67;;
29358;SDS011;16347;53.232;6.556;2023-04-03T00:13:36;3.72;;;1.42;;
29358;SDS011;16347;53.232;6.556;2023-04-03T00:16:05;4.68;;;2.15;;
29358;SDS011;16347;53.232;6.556;2023-04-03T00:18:33;4.68;;;1.67;;
29358;SDS011;16347;53.232;6.556;2023-04-03T00:21:03;6.32;;;2.50;;
29358;SDS011;16347;53.232;6.556;2023-04-03T00:23:31;3.67;;;1.60;;
29358;SDS011;16347;53.232;6.556;2023-04-03T00:26:01;5.18;;;2.30;;
29358;SDS011;16347;53.232;6.556;2023-04-03T00:28:29;3.97;;;1.65;;
29358;SDS011;16347;53.232;6.556;2023-04-03T00:30:58;3.80;;;1.42;;
29358;SDS011;16347;53.232;6.556;2023-04-03T00:33:26;8.63;;;1.50;;
29358;SDS011;16347;53.232;6.556;2023-04-03T00:35:54;3.42;;;1.38;;
29358;SDS011;16347;53.232;6.556;2023-04-03T00:38:24;3.78;;;1.83;;
29358;SDS011;16347;53.232;6.556;2023-04-03T00:40:52;5.32;;;1.30;;
29358;SDS011;16347;53.232;6.556;2023-04-03T00:43:24;3.65;;;1.63;;
29358;SDS011;16347;53.232;6.556;2023-04-03T00:45:53;2.88;;;1.52;;
29358;SDS011;16347;53.232;6.556;2023-04-03T00:48:22;3.20;;;1.27;;
29358;SDS011;16347;53.232;6.556;2023-04-03T00:50:53;6.85;;;2.20;;
29358;SDS011;16347;53.232;6.556;2023-04-03T00:53:23;4.70;;;1.55;;
29358;SDS011;16347;53.232;6.556;2023-04-03T00:55:56;12.23;;;1.83;;
29358;SDS011;16347;53.232;6.556;2023-04-03T00:58:26;4.82;;;1.73;;
29358;SDS011;16347;53.232;6.556;2023-04-03T01:01:02;4.30;;;1.50;;
29358;SDS011;16347;53.232;6.556;2023-04-03T01:03:34;6.88;;;1.90;;
29358;SDS011;16347;53.232;6.556;2023-04-03T01:06:05;6.03;;;1.42;;
29358;SDS011;16347;53.232;6.556;2023-04-03T01:08:36;5.07;;;1.60;;
29358;SDS011;16347;53.232;6.556;2023-04-03T01:11:04;2.92;;;1.40;;
29358;SDS011;16347;53.232;6.556;2023-04-03T01:13:33;4.28;;;1.70;;
29358;SDS011;16347;53.232;6.556;2023-04-03T01:16:04;4.18;;;1.27;;
29358;SDS011;16347;53.232;6.556;2023-04-03T01:18:34;7.68;;;1.60;;
29358;SDS011;16347;53.232;6.556;2023-04-03T01:21:15;6.88;;;2.17;;
29358;SDS011;16347;53.232;6.556;2023-04-03T01:26:55;3.15;;;1.25;;
29358;SDS011;16347;53.232;6.556;2023-04-03T01:29:23;7.05;;;1.38;;
29358;SDS011;16347;53.232;6.556;2023-04-03T01:31:53;10.50;;;2.28;;
29358;SDS011;16347;53.232;6.556;2023-04-03T01:34:23;4.32;;;1.52;;
29358;SDS011;16347;53.232;6.556;2023-04-03T01:36:52;4.35;;;1.60;;
29358;SDS011;16347;53.232;6.556;2023-04-03T01:39:21;5.65;;;1.50;;
29358;SDS011;16347;53.232;6.556;2023-04-03T01:41:50;7.00;;;1.50;;
29358;SDS011;16347;53.232;6.556;2023-04-03T01:44:25;3.72;;;1.58;;
29358;SDS011;16347;53.232;6.556;2023-04-03T01:46:54;5.00;;;1.50;;
29358;SDS011;16347;53.232;6.556;2023-04-03T01:49:24;9.90;;;1.98;;
29358;SDS011;16347;53.232;6.556;2023-04-03T01:51:53;7.15;;;1.90;;
29358;SDS011;16347;53.232;6.556;2023-04-03T01:54:22;10.20;;;1.73;;
29358;SDS011;16347;53.232;6.556;2023-04-03T01:56:51;5.72;;;1.67;;
29358;SDS011;16347;53.232;6.556;2023-04-03T01:59:20;7.50;;;1.77;;
29358;SDS011;16347;53.232;6.556;2023-04-03T02:01:50;3.47;;;1.45;;
29358;SDS011;16347;53.232;6.556;2023-04-03T02:04:19;5.07;;;1.77;;
29358;SDS011;16347;53.232;6.556;2023-04-03T02:06:47;5.90;;;1.45;;
29358;SDS011;16347;53.232;6.556;2023-04-03T02:09:15;7.60;;;1.70;;
29358;SDS011;16347;53.232;6.556;2023-04-03T02:11:43;6.00;;;1.98;;
29358;SDS011;16347;53.232;6.556;2023-04-03T02:14:12;5.57;;;1.67;;
29358;SDS011;16347;53.232;6.556;2023-04-03T02:16:40;7.22;;;1.65;;
29358;SDS011;16347;53.232;6.556;2023-04-03T02:19:08;7.00;;;2.05;;
29358;SDS011;16347;53.232;6.556;2023-04-03T02:21:37;6.15;;;1.38;;
29358;SDS011;16347;53.232;6.556;2023-04-03T02:24:06;9.48;;;1.70;;
29358;SDS011;16347;53.232;6.556;2023-04-03T02:26:34;5.13;;;1.77;;
29358;SDS011;16347;53.232;6.556;2023-04-03T02:29:02;3.90;;;1.40;;
29358;SDS011;16347;53.232;6.556;2023-04-03T02:31:30;6.18;;;1.70;;
29358;SDS011;16347;53.232;6.556;2023-04-03T02:34:02;4.28;;;1.10;;
29358;SDS011;16347;53.232;6.556;2023-04-03T02:36:31;8.63;;;2.05;;
29358;SDS011;16347;53.232;6.556;2023-04-03T02:39:04;7.93;;;1.58;;
29358;SDS011;16347;53.232;6.556;2023-04-03T02:41:34;4.30;;;1.40;;
29358;SDS011;16347;53.232;6.556;2023-04-03T02:44:09;13.45;;;2.05;;
29358;SDS011;16347;53.232;6.556;2023-04-03T02:46:38;5.70;;;1.48;;
29358;SDS011;16347;53.232;6.556;2023-04-03T02:49:07;8.00;;;1.88;;
29358;SDS011;16347;53.232;6.556;2023-04-03T02:51:35;9.25;;;2.00;;
29358;SDS011;16347;53.232;6.556;2023-04-03T02:54:05;6.22;;;1.45;;
29358;SDS011;16347;53.232;6.556;2023-04-03T02:56:36;6.93;;;1.57;;
29358;SDS011;16347;53.232;6.556;2023-04-03T02:59:04;3.88;;;1.52;;
29358;SDS011;16347;53.232;6.556;2023-04-03T03:01:36;8.15;;;1.70;;
29358;SDS011;16347;53.232;6.556;2023-04-03T03:04:04;5.90;;;1.80;;
29358;SDS011;16347;53.232;6.556;2023-04-03T03:06:32;4.68;;;1.60;;
29358;SDS011;16347;53.232;6.556;2023-04-03T03:09:00;8.38;;;1.27;;
29358;SDS011;16347;53.232;6.556;2023-04-03T03:11:30;4.90;;;1.35;;
29358;SDS011;16347;53.232;6.556;2023-04-03T03:13:58;5.35;;;1.73;;
29358;SDS011;16347;53.232;6.556;2023-04-03T03:16:26;6.20;;;2.13;;
29358;SDS011;16347;53.232;6.556;2023-04-03T03:18:55;6.18;;;1.67;;
29358;SDS011;16347;53.232;6.556;2023-04-03T03:21:24;5.60;;;1.50;;
29358;SDS011;16347;53.232;6.556;2023-04-03T03:23:53;8.45;;;2.22;;
29358;SDS011;16347;53.232;6.556;2023-04-03T03:26:21;5.43;;;2.45;;
29358;SDS011;16347;53.232;6.556;2023-04-03T03:28:50;7.53;;;1.67;;
29358;SDS011;16347;53.232;6.556;2023-04-03T03:31:18;8.27;;;2.35;;
29358;SDS011;16347;53.232;6.556;2023-04-03T03:33:46;5.30;;;1.88;;
29358;SDS011;16347;53.232;6.556;2023-04-03T03:36:14;5.30;;;1.48;;
29358;SDS011;16347;53.232;6.556;2023-04-03T03:38:42;5.88;;;1.48;;
29358;SDS011;16347;53.232;6.556;2023-04-03T03:41:11;5.28;;;2.13;;
29358;SDS011;16347;53.232;6.556;2023-04-03T03:43:41;5.32;;;1.70;;
29358;SDS011;16347;53.232;6.556;2023-04-03T03:46:12;9.18;;;1.88;;
29358;SDS011;16347;53.232;6.556;2023-04-03T03:48:40;8.57;;;1.85;;
29358;SDS011;16347;53.232;6.556;2023-04-03T03:51:08;6.22;;;1.70;;
29358;SDS011;16347;53.232;6.556;2023-04-03T03:53:37;10.57;;;1.98;;
29358;SDS011;16347;53.232;6.556;2023-04-03T03:56:11;5.68;;;1.85;;
29358;SDS011;16347;53.232;6.556;2023-04-03T03:58:40;3.90;;;1.10;;
29358;SDS011;16347;53.232;6.556;2023-04-03T04:01:08;4.40;;;1.70;;
29358;SDS011;16347;53.232;6.556;2023-04-03T04:03:45;8.48;;;2.03;;
29358;SDS011;16347;53.232;6.556;2023-04-03T04:06:18;6.20;;;1.92;;
29358;SDS011;16347;53.232;6.556;2023-04-03T04:08:46;9.13;;;2.17;;
29358;SDS011;16347;53.232;6.556;2023-04-03T04:11:14;8.00;;;2.13;;
29358;SDS011;16347;53.232;6.556;2023-04-03T04:13:44;9.07;;;2.15;;
29358;SDS011;16347;53.232;6.556;2023-04-03T04:16:14;6.50;;;1.80;;
29358;SDS011;16347;53.232;6.556;2023-04-03T04:18:42;10.88;;;2.20;;
29358;SDS011;16347;53.232;6.556;2023-04-03T04:21:11;10.75;;;2.33;;
29358;SDS011;16347;53.232;6.556;2023-04-03T04:23:40;7.47;;;2.17;;
29358;SDS011;16347;53.232;6.556;2023-04-03T04:26:08;7.05;;;2.00;;
29358;SDS011;16347;53.232;6.556;2023-04-03T04:28:38;6.13;;;1.77;;
29358;SDS011;16347;53.232;6.556;2023-04-03T04:31:06;8.77;;;1.80;;
29358;SDS011;16347;53.232;6.556;2023-04-03T04:33:35;9.15;;;2.15;;
29358;SDS011;16347;53.232;6.556;2023-04-03T04:36:05;12.38;;;2.63;;
29358;SDS011;16347;53.232;6.556;2023-04-03T04:38:36;9.57;;;2.17;;
29358;SDS011;16347;53.232;6.556;2023-04-03T04:41:05;8.65;;;2.03;;
29358;SDS011;16347;53.232;6.556;2023-04-03T04:43:33;9.07;;;2.25;;
29358;SDS011;16347;53.232;6.556;2023-04-03T04:46:03;7.22;;;2.13;;
29358;SDS011;16347;53.232;6.556;2023-04-03T04:48:36;10.13;;;2.50;;
29358;SDS011;16347;53.232;6.556;2023-04-03T04:51:05;8.98;;;2.10;;
29358;SDS011;16347;53.232;6.556;2023-04-03T04:53:37;11.35;;;2.55;;
29358;SDS011;16347;53.232;6.556;2023-04-03T04:56:06;7.68;;;2.10;;
29358;SDS011;16347;53.232;6.556;2023-04-03T04:58:36;5.80;;;2.42;;
29358;SDS011;16347;53.232;6.556;2023-04-03T05:01:06;7.95;;;2.53;;
29358;SDS011;16347;53.232;6.556;2023-04-03T05:03:44;11.65;;;2.13;;
29358;SDS011;16347;53.232;6.556;2023-04-03T05:06:14;5.00;;;2.40;;
29358;SDS011;16347;53.232;6.556;2023-04-03T05:08:44;9.48;;;2.50;;
29358;SDS011;16347;53.232;6.556;2023-04-03T05:11:12;8.43;;;2.63;;
29358;SDS011;16347;53.232;6.556;2023-04-03T05:13:42;12.05;;;2.40;;
29358;SDS011;16347;53.232;6.556;2023-04-03T05:16:10;9.25;;;2.40;;
29358;SDS011;16347;53.232;6.556;2023-04-03T05:18:39;11.05;;;2.20;;
29358;SDS011;16347;53.232;6.556;2023-04-03T05:21:11;7.25;;;2.30;;
29358;SDS011;16347;53.232;6.556;2023-04-03T05:23:40;9.65;;;2.25;;
29358;SDS011;16347;53.232;6.556;2023-04-03T05:26:09;8.18;;;2.40;;
29358;SDS011;16347;53.232;6.556;2023-04-03T05:28:38;7.10;;;2.20;;
29358;SDS011;16347;53.232;6.556;2023-04-03T05:31:07;5.60;;;2.40;;
29358;SDS011;16347;53.232;6.556;2023-04-03T05:33:35;9.68;;;2.30;;
29358;SDS011;16347;53.232;6.556;2023-04-03T05:36:07;9.93;;;2.40;;
29358;SDS011;16347;53.232;6.556;2023-04-03T05:38:41;8.32;;;2.70;;
29358;SDS011;16347;53.232;6.556;2023-04-03T05:41:11;7.95;;;2.40;;
29358;SDS011;16347;53.232;6.556;2023-04-03T05:43:40;8.30;;;2.17;;
29358;SDS011;16347;53.232;6.556;2023-04-03T05:46:10;10.50;;;2.63;;
29358;SDS011;16347;53.232;6.556;2023-04-03T05:48:40;7.65;;;2.47;;
29358;SDS011;16347;53.232;6.556;2023-04-03T05:51:13;12.75;;;2.10;;
29358;SDS011;16347;53.232;6.556;2023-04-03T05:53:44;20.73;;;3.00;;
29358;SDS011;16347;53.232;6.556;2023-04-03T05:56:16;7.93;;;2.35;;
29358;SDS011;16347;53.232;6.556;2023-04-03T05:58:44;6.20;;;2.22;;
29358;SDS011;16347;53.232;6.556;2023-04-03T06:01:12;7.00;;;2.38;;
29358;SDS011;16347;53.232;6.556;2023-04-03T06:03:41;7.10;;;2.20;;
29358;SDS011;16347;53.232;6.556;2023-04-03T06:06:12;14.32;;;2.70;;
29358;SDS011;16347;53.232;6.556;2023-04-03T06:08:40;10.00;;;2.40;;
29358;SDS011;16347;53.232;6.556;2023-04-03T06:11:10;10.75;;;2.45;;
29358;SDS011;16347;53.232;6.556;2023-04-03T06:13:40;6.63;;;2.47;;
29358;SDS011;16347;53.232;6.556;2023-04-03T06:16:08;9.75;;;2.40;;
29358;SDS011;16347;53.232;6.556;2023-04-03T06:18:40;6.35;;;1.80;;
29358;SDS011;16347;53.232;6.556;2023-04-03T06:21:09;9.45;;;2.40;;
29358;SDS011;16347;53.232;6.556;2023-04-03T06:23:37;9.65;;;2.33;;
29358;SDS011;16347;53.232;6.556;2023-04-03T06:26:05;8.57;;;2.30;;
29358;SDS011;16347;53.232;6.556;2023-04-03T06:28:34;6.10;;;2.22;;
29358;SDS011;16347;53.232;6.556;2023-04-03T06:31:04;6.90;;;2.50;;
29358;SDS011;16347;53.232;6.556;2023-04-03T06:33:32;9.13;;;3.22;;
29358;SDS011;16347;53.232;6.556;2023-04-03T06:36:03;9.68;;;2.90;;
29358;SDS011;16347;53.232;6.556;2023-04-03T06:38:33;15.35;;;2.50;;
29358;SDS011;16347;53.232;6.556;2023-04-03T06:41:01;16.58;;;4.07;;
29358;SDS011;16347;53.232;6.556;2023-04-03T06:43:29;10.27;;;2.45;;
29358;SDS011;16347;53.232;6.556;2023-04-03T06:46:00;5.10;;;2.20;;
29358;SDS011;16347;53.232;6.556;2023-04-03T06:48:30;10.43;;;2.70;;
29358;SDS011;16347;53.232;6.556;2023-04-03T06:50:58;12.55;;;2.50;;
29358;SDS011;16347;53.232;6.556;2023-04-03T06:53:26;10.10;;;2.83;;
29358;SDS011;16347;53.232;6.556;2023-04-03T06:55:54;10.10;;;2.78;;
29358;SDS011;16347;53.232;6.556;2023-04-03T06:58:23;7.57;;;2.30;;
29358;SDS011;16347;53.232;6.556;2023-04-03T07:00:51;13.20;;;3.17;;
29358;SDS011;16347;53.232;6.556;2023-04-03T07:03:19;14.27;;;2.72;;
29358;SDS011;16347;53.232;6.556;2023-04-03T07:05:48;9.55;;;2.38;;
29358;SDS011;16347;53.232;6.556;2023-04-03T07:08:16;14.75;;;3.47;;
29358;SDS011;16347;53.232;6.556;2023-04-03T07:10:44;10.68;;;2.58;;
29358;SDS011;16347;53.232;6.556;2023-04-03T07:13:12;11.18;;;2.88;;
29358;SDS011;16347;53.232;6.556;2023-04-03T07:15:41;8.00;;;2.30;;
29358;SDS011;16347;53.232;6.556;2023-04-03T07:18:09;6.70;;;2.55;;
29358;SDS011;16347;53.232;6.556;2023-04-03T07:20:38;8.63;;;2.42;;
29358;SDS011;16347;53.232;6.556;2023-04-03T07:23:08;12.50;;;2.92;;
29358;SDS011;16347;53.232;6.556;2023-04-03T07:25:36;8.25;;;2.58;;
29358;SDS011;16347;53.232;6.556;2023-04-03T07:28:09;17.08;;;2.70;;
29358;SDS011;16347;53.232;6.556;2023-04-03T07:30:42;13.50;;;3.20;;
29358;SDS011;16347;53.232;6.556;2023-04-03T07:35:40;7.80;;;3.08;;
29358;SDS011;16347;53.232;6.556;2023-04-03T07:38:10;8.73;;;2.30;;
29358;SDS011;16347;53.232;6.556;2023-04-03T07:40:38;14.02;;;2.67;;
29358;SDS011;16347;53.232;6.556;2023-04-03T07:43:07;10.20;;;2.28;;
29358;SDS011;16347;53.232;6.556;2023-04-03T07:45:35;8.15;;;2.30;;
29358;SDS011;16347;53.232;6.556;2023-04-03T07:48:04;11.50;;;2.50;;
29358;SDS011;16347;53.232;6.556;2023-04-03T07:50:32;9.73;;;2.75;;
29358;SDS011;16347;53.232;6.556;2023-04-03T07:53:01;10.18;;;2.88;;
29358;SDS011;16347;53.232;6.556;2023-04-03T07:55:31;10.18;;;1.75;;
29358;SDS011;16347;53.232;6.556;2023-04-03T07:58:00;6.63;;;2.42;;
29358;SDS011;16347;53.232;6.556;2023-04-03T08:00:28;10.05;;;2.72;;
29358;SDS011;16347;53.232;6.556;2023-04-03T08:02:56;9.45;;;2.45;;
29358;SDS011;16347;53.232;6.556;2023-04-03T08:05:25;14.43;;;2.58;;
29358;SDS011;16347;53.232;6.556;2023-04-03T08:07:53;5.93;;;2.05;;
29358;SDS011;16347;53.232;6.556;2023-04-03T08:10:21;11.35;;;2.67;;
29358;SDS011;16347;53.232;6.556;2023-04-03T08:12:50;11.73;;;2.40;;
29358;SDS011;16347;53.232;6.556;2023-04-03T08:15:18;6.55;;;2.58;;
29358;SDS011;16347;53.232;6.556;2023-04-03T08:17:47;10.77;;;2.45;;
29358;SDS011;16347;53.232;6.556;2023-04-03T08:20:15;7.05;;;2.25;;
29358;SDS011;16347;53.232;6.556;2023-04-03T08:22:43;6.40;;;2.20;;
29358;SDS011;16347;53.232;6.556;2023-04-03T08:25:12;5.65;;;2.05;;
29358;SDS011;16347;53.232;6.556;2023-04-03T08:27:40;6.53;;;2.33;;
29358;SDS011;16347;53.232;6.556;2023-04-03T08:30:10;6.15;;;1.85;;
29358;SDS011;16347;53.232;6.556;2023-04-03T08:32:39;14.10;;;2.85;;
29358;SDS011;16347;53.232;6.556;2023-04-03T08:35:08;6.65;;;2.33;;
29358;SDS011;16347;53.232;6.556;2023-04-03T08:37:37;5.95;;;2.17;;
29358;SDS011;16347;53.232;6.556;2023-04-03T08:40:05;6.90;;;2.03;;
29358;SDS011;16347;53.232;6.556;2023-04-03T08:42:40;8.65;;;1.95;;
29358;SDS011;16347;53.232;6.556;2023-04-03T08:45:15;6.32;;;2.03;;
29358;SDS011;16347;53.232;6.556;2023-04-03T08:47:47;6.53;;;1.80;;
29358;SDS011;16347;53.232;6.556;2023-04-03T08:50:24;8.35;;;2.08;;
29358;SDS011;16347;53.232;6.556;2023-04-03T08:52:57;8.50;;;2.45;;
29358;SDS011;16347;53.232;6.556;2023-04-03T08:55:27;8.63;;;2.60;;
29358;SDS011;16347;53.232;6.556;2023-04-03T08:57:58;8.48;;;2.22;;
29358;SDS011;16347;53.232;6.556;2023-04-03T09:00:32;4.85;;;2.03;;
29358;SDS011;16347;53.232;6.556;2023-04-03T09:03:10;5.28;;;1.70;;
29358;SDS011;16347;53.232;6.556;2023-04-03T09:05:41;8.10;;;2.00;;
29358;SDS011;16347;53.232;6.556;2023-04-03T09:08:18;7.18;;;1.70;;
29358;SDS011;16347;53.232;6.556;2023-04-03T09:10:55;6.38;;;1.83;;
29358;SDS011;16347;53.232;6.556;2023-04-03T09:13:41;7.40;;;2.15;;
29358;SDS011;16347;53.232;6.556;2023-04-03T09:16:22;9.18;;;2.22;;
29358;SDS011;16347;53.232;6.556;2023-04-03T09:18:57;4.97;;;1.52;;
29358;SDS011;16347;53.232;6.556;2023-04-03T09:21:34;3.40;;;1.20;;
29358;SDS011;16347;53.232;6.556;2023-04-03T09:24:09;4.93;;;0.95;;
29358;SDS011;16347;53.232;6.556;2023-04-03T09:26:41;4.88;;;1.50;;
29358;SDS011;16347;53.232;6.556;2023-04-03T09:29:14;4.70;;;1.38;;
29358;SDS011;16347;53.232;6.556;2023-04-03T09:31:47;5.80;;;1.55;;
29358;SDS011;16347;53.232;6.556;2023-04-03T09:34:19;5.43;;;1.50;;
29358;SDS011;16347;53.232;6.556;2023-04-03T09:36:51;5.15;;;1.48;;
29358;SDS011;16347;53.232;6.556;2023-04-03T09:39:21;4.80;;;1.35;;
29358;SDS011;16347;53.232;6.556;2023-04-03T09:41:55;7.45;;;1.35;;
29358;SDS011;16347;53.232;6.556;2023-04-03T09:44:26;7.15;;;2.17;;
29358;SDS011;16347;53.232;6.556;2023-04-03T09:46:57;5.13;;;1.30;;
29358;SDS011;16347;53.232;6.556;2023-04-03T09:49:26;3.75;;;1.67;;
29358;SDS011;16347;53.232;6.556;2023-04-03T09:51:54;6.60;;;1.90;;
29358;SDS011;16347;53.232;6.556;2023-04-03T09:54:30;6.68;;;2.20;;
29358;SDS011;16347;53.232;6.556;2023-04-03T09:57:02;3.95;;;1.50;;
29358;SDS011;16347;53.232;6.556;2023-04-03T09:59:34;4.07;;;1.48;;
29358;SDS011;16347;53.232;6.556;2023-04-03T10:02:20;7.20;;;1.90;;
29358;SDS011;16347;53.232;6.556;2023-04-03T10:04:51;3.97;;;1.30;;
29358;SDS011;16347;53.232;6.556;2023-04-03T10:07:35;3.42;;;1.48;;
29358;SDS011;16347;53.232;6.556;2023-04-03T10:10:17;6.55;;;1.40;;
29358;SDS011;16347;53.232;6.556;2023-04-03T10:12:46;4.03;;;1.20;;
29358;SDS011;16347;53.232;6.556;2023-04-03T10:15:16;5.07;;;1.90;;
29358;SDS011;16347;53.232;6.556;2023-04-03T10:17:53;3.53;;;1.30;;
29358;SDS011;16347;53.232;6.556;2023-04-03T10:20:29;3.97;;;1.80;;
29358;SDS011;16347;53.232;6.556;2023-04-03T10:23:12;3.58;;;1.33;;
29358;SDS011;16347;53.232;6.556;2023-04-03T10:25:46;6.40;;;1.52;;
29358;SDS011;16347;53.232;6.556;2023-04-03T10:28:27;4.43;;;1.23;;
29358;SDS011;16347;53.232;6.556;2023-04-03T10:31:03;5.05;;;1.20;;
29358;SDS011;16347;53.232;6.556;2023-04-03T10:33:46;4.40;;;1.33;;
29358;SDS011;16347;53.232;6.556;2023-04-03T10:36:25;3.58;;;1.20;;
29358;SDS011;16347;53.232;6.556;2023-04-03T10:39:02;2.88;;;1.20;;
29358;SDS011;16347;53.232;6.556;2023-04-03T10:41:41;3.78;;;1.33;;
29358;SDS011;16347;53.232;6.556;2023-04-03T10:44:20;5.07;;;1.50;;
29358;SDS011;16347;53.232;6.556;2023-04-03T10:46:59;6.18;;;0.88;;
29358;SDS011;16347;53.232;6.556;2023-04-03T10:49:38;1.90;;;1.02;;
29358;SDS011;16347;53.232;6.556;2023-04-03T10:52:26;2.55;;;0.93;;
29358;SDS011;16347;53.232;6.556;2023-04-03T10:55:04;4.88;;;1.67;;
29358;SDS011;16347;53.232;6.556;2023-04-03T10:57:41;4.57;;;1.10;;
29358;SDS011;16347;53.232;6.556;2023-04-03T11:00:14;3.83;;;1.52;;
29358;SDS011;16347;53.232;6.556;2023-04-03T11:02:48;4.07;;;1.23;;
29358;SDS011;16347;53.232;6.556;2023-04-03T11:05:26;4.15;;;1.35;;
29358;SDS011;16347;53.232;6.556;2023-04-03T11:07:59;5.90;;;2.78;;
29358;SDS011;16347;53.232;6.556;2023-04-03T11:10:36;6.90;;;1.50;;
29358;SDS011;16347;53.232;6.556;2023-04-03T11:13:11;5.57;;;1.70;;
29358;SDS011;16347;53.232;6.556;2023-04-03T11:15:42;3.58;;;1.90;;
29358;SDS011;16347;53.232;6.556;2023-04-03T11:18:13;5.43;;;1.60;;
29358;SDS011;16347;53.232;6.556;2023-04-03T11:20:47;3.70;;;2.37;;
29358;SDS011;16347;53.232;6.556;2023-04-03T11:23:24;6.03;;;2.20;;
29358;SDS011;16347;53.232;6.556;2023-04-03T11:26:08;4.75;;;1.13;;
29358;SDS011;16347;53.232;6.556;2023-04-03T11:28:39;5.53;;;1.27;;
29358;SDS011;16347;53.232;6.556;2023-04-03T11:31:11;4.18;;;1.38;;
29358;SDS011;16347;53.232;6.556;2023-04-03T11:33:51;2.95;;;0.90;;
29358;SDS011;16347;53.232;6.556;2023-04-03T11:36:28;2.42;;;1.00;;
29358;SDS011;16347;53.232;6.556;2023-04-03T11:39:05;4.82;;;1.45;;
29358;SDS011;16347;53.232;6.556;2023-04-03T11:41:43;3.40;;;0.88;;
29358;SDS011;16347;53.232;6.556;2023-04-03T11:44:25;10.68;;;1.10;;
29358;SDS011;16347;53.232;6.556;2023-04-03T11:46:58;3.83;;;1.05;;
29358;SDS011;16347;53.232;6.556;2023-04-03T11:55:46;7.68;;;1.80;;
29358;SDS011;16347;53.232;6.556;2023-04-03T11:58:22;2.50;;;1.30;;
29358;SDS011;16347;53.232;6.556;2023-04-03T12:00:53;6.50;;;1.35;;
29358;SDS011;16347;53.232;6.556;2023-04-03T12:03:31;5.32;;;2.10;;
29358;SDS011;16347;53.232;6.556;2023-04-03T12:09:24;8.98;;;1.50;;
29358;SDS011;16347;53.232;6.556;2023-04-03T12:12:00;3.50;;;1.30;;
29358;SDS011;16347;53.232;6.556;2023-04-03T12:14:48;4.47;;;2.28;;
29358;SDS011;16347;53.232;6.556;2023-04-03T12:17:20;7.40;;;2.45;;
29358;SDS011;16347;53.232;6.556;2023-04-03T12:19:52;4.45;;;1.80;;
29358;SDS011;16347;53.232;6.556;2023-04-03T12:22:21;7.90;;;2.63;;
29358;SDS011;16347;53.232;6.556;2023-04-03T12:24:51;6.47;;;2.50;;
29358;SDS011;16347;53.232;6.556;2023-04-03T12:27:27;2.75;;;1.55;;
29358;SDS011;16347;53.232;6.556;2023-04-03T12:30:12;4.32;;;1.60;;
29358;SDS011;16347;53.232;6.556;2023-04-03T12:35:43;7.28;;;3.35;;
29358;SDS011;16347;53.232;6.556;2023-04-03T12:38:25;5.32;;;2.10;;
29358;SDS011;16347;53.232;6.556;2023-04-03T12:41:19;10.07;;;3.85;;
29358;SDS011;16347;53.232;6.556;2023-04-03T12:43:56;5.28;;;1.92;;
29358;SDS011;16347;53.232;6.556;2023-04-03T12:46:36;4.35;;;2.22;;
29358;SDS011;16347;53.232;6.556;2023-04-03T12:51:44;3.20;;;1.45;;
29358;SDS011;16347;53.232;6.556;2023-04-03T12:54:14;2.55;;;1.63;;
29358;SDS011;16347;53.232;6.556;2023-04-03T12:56:45;2.33;;;1.20;;
29358;SDS011;16347;53.232;6.556;2023-04-03T12:59:15;3.22;;;1.45;;
29358;SDS011;16347;53.232;6.556;2023-04-03T13:01:44;16.40;;;1.15;;
29358;SDS011;16347;53.232;6.556;2023-04-03T13:04:22;3.65;;;1.17;;
29358;SDS011;16347;53.232;6.556;2023-04-03T13:06:50;3.28;;;1.20;;
29358;SDS011;16347;53.232;6.556;2023-04-03T13:09:19;7.65;;;1.10;;
29358;SDS011;16347;53.232;6.556;2023-04-03T13:11:51;3.85;;;1.25;;
29358;SDS011;16347;53.232;6.556;2023-04-03T13:14:25;3.72;;;1.42;;
29358;SDS011;16347;53.232;6.556;2023-04-03T13:16:55;4.40;;;1.08;;
29358;SDS011;16347;53.232;6.556;2023-04-03T13:19:25;2.00;;;1.00;;
29358;SDS011;16347;53.232;6.556;2023-04-03T13:21:57;1.92;;;1.13;;
29358;SDS011;16347;53.232;6.556;2023-04-03T13:24:29;2.15;;;0.88;;
29358;SDS011;16347;53.232;6.556;2023-04-03T13:27:03;7.43;;;1.30;;
29358;SDS011;16347;53.232;6.556;2023-04-03T13:29:33;3.22;;;1.17;;
29358;SDS011;16347;53.232;6.556;2023-04-03T13:32:04;3.67;;;1.30;;
29358;SDS011;16347;53.232;6.556;2023-04-03T13:34:36;2.92;;;1.10;;
29358;SDS011;16347;53.232;6.556;2023-04-03T13:37:06;6.45;;;1.33;;
29358;SDS011;16347;53.232;6.556;2023-04-03T13:39:35;0.95;;;0.73;;
29358;SDS011;16347;53.232;6.556;2023-04-03T13:42:16;2.95;;;1.10;;
29358;SDS011;16347;53.232;6.556;2023-04-03T13:47:38;3.50;;;1.55;;
29358;SDS011;16347;53.232;6.556;2023-04-03T13:50:17;3.38;;;1.10;;
29358;SDS011;16347;53.232;6.556;2023-04-03T13:52:47;2.88;;;1.38;;
29358;SDS011;16347;53.232;6.556;2023-04-03T13:55:19;6.47;;;1.27;;
29358;SDS011;16347;53.232;6.556;2023-04-03T13:57:55;4.15;;;1.10;;
29358;SDS011;16347;53.232;6.556;2023-04-03T14:00:30;5.20;;;1.67;;
29358;SDS011;16347;53.232;6.556;2023-04-03T14:03:01;5.40;;;1.48;;
29358;SDS011;16347;53.232;6.556;2023-04-03T14:05:29;7.78;;;1.85;;
29358;SDS011;16347;53.232;6.556;2023-04-03T14:07:57;4.88;;;1.52;;
29358;SDS011;16347;53.232;6.556;2023-04-03T14:10:25;3.83;;;1.70;;
29358;SDS011;16347;53.232;6.556;2023-04-03T14:12:55;5.15;;;1.20;;
29358;SDS011;16347;53.232;6.556;2023-04-03T14:15:24;6.15;;;1.50;;
29358;SDS011;16347;53.232;6.556;2023-04-03T14:17:55;4.90;;;1.40;;
29358;SDS011;16347;53.232;6.556;2023-04-03T14:20:26;5.10;;;1.20;;
29358;SDS011;16347;53.232;6.556;2023-04-03T14:22:54;5.68;;;1.85;;
29358;SDS011;16347;53.232;6.556;2023-04-03T14:25:23;4.38;;;1.35;;
29358;SDS011;16347;53.232;6.556;2023-04-03T14:27:52;3.00;;;1.27;;
29358;SDS011;16347;53.232;6.556;2023-04-03T14:30:23;3.13;;;1.20;;
29358;SDS011;16347;53.232;6.556;2023-04-03T14:32:53;2.95;;;1.20;;
29358;SDS011;16347;53.232;6.556;2023-04-03T14:35:22;8.23;;;1.13;;
29358;SDS011;16347;53.232;6.556;2023-04-03T14:37:51;6.50;;;2.03;;
29358;SDS011;16347;53.232;6.556;2023-04-03T14:40:22;2.50;;;1.02;;
29358;SDS011;16347;53.232;6.556;2023-04-03T14:42:52;4.68;;;1.30;;
29358;SDS011;16347;53.232;6.556;2023-04-03T14:45:23;4.18;;;1.38;;
29358;SDS011;16347;53.232;6.556;2023-04-03T14:47:54;5.10;;;1.05;;
29358;SDS011;16347;53.232;6.556;2023-04-03T14:50:24;3.70;;;1.45;;
29358;SDS011;16347;53.232;6.556;2023-04-03T14:52:55;9.35;;;1.33;;
29358;SDS011;16347;53.232;6.556;2023-04-03T14:55:25;3.80;;;1.25;;
29358;SDS011;16347;53.232;6.556;2023-04-03T14:57:54;6.82;;;1.42;;
29358;SDS011;16347;53.232;6.556;2023-04-03T15:00:24;4.40;;;1.45;;
29358;SDS011;16347;53.232;6.556;2023-04-03T15:02:52;5.07;;;1.23;;
29358;SDS011;16347;53.232;6.556;2023-04-03T15:05:20;2.47;;;1.40;;
29358;SDS011;16347;53.232;6.556;2023-04-03T15:07:49;2.97;;;1.27;;
29358;SDS011;16347;53.232;6.556;2023-04-03T15:10:20;5.80;;;1.00;;
29358;SDS011;16347;53.232;6.556;2023-04-03T15:12:50;3.17;;;1.58;;
29358;SDS011;16347;53.232;6.556;2023-04-03T15:15:19;3.60;;;1.73;;
29358;SDS011;16347;53.232;6.556;2023-04-03T15:17:51;2.10;;;1.23;;
29358;SDS011;16347;53.232;6.556;2023-04-03T15:20:22;1.92;;;1.10;;
29358;SDS011;16347;53.232;6.556;2023-04-03T15:22:51;2.78;;;1.30;;
29358;SDS011;16347;53.232;6.556;2023-04-03T15:25:19;6.40;;;1.20;;
29358;SDS011;16347;53.232;6.556;2023-04-03T15:27:47;3.20;;;0.95;;
29358;SDS011;16347;53.232;6.556;2023-04-03T15:30:17;4.25;;;1.48;;
29358;SDS011;16347;53.232;6.556;2023-04-03T15:32:46;3.97;;;1.83;;